sensor_id;sensor_type;location;lat;lon;timestamp;P1;durP1;ratioP1;P2;durP2;ratioP2
69087;SDS011;56190;43.562;5.036;2024-03-06T00:01:23;0.60;;;0.40;;
69087;SDS011;56190;43.562;5.036;2024-03-06T00:03:48;1.05;;;0.50;;
69087;SDS011;56190;43.562;5.036;2024-03-06T00:06:13;0.30;;;0.30;;
69087;SDS011;56190;43.562;5.036;2024-03-06T00:08:39;0.52;;;0.50;;
69087;SDS011;56190;43.562;5.036;2024-03-06T00:11:04;0.50;;;0.40;;
69087;SDS011;56190;43.562;5.036;2024-03-06T00:13:29;0.75;;;0.52;;
69087;SDS011;56190;43.562;5.036;2024-03-06T00:15:54;0.80;;;0.43;;
69087;SDS011;56190;43.562;5.036;2024-03-06T00:18:20;1.25;;;0.50;;
69087;SDS011;56190;43.562;5.036;2024-03-06T00:20:45;0.85;;;0.40;;
69087;SDS011;56190;43.562;5.036;2024-03-06T00:23:10;0.50;;;0.30;;
69087;SDS011;56190;43.562;5.036;2024-03-06T00:25:35;0.82;;;0.40;;
69087;SDS011;56190;43.562;5.036;2024-03-06T00:28:01;0.55;;;0.35;;
69087;SDS011;56190;43.562;5.036;2024-03-06T00:30:26;0.60;;;0.50;;
69087;SDS011;56190;43.562;5.036;2024-03-06T00:32:51;0.60;;;0.40;;
69087;SDS011;56190;43.562;5.036;2024-03-06T00:35:17;0.50;;;0.40;;
69087;SDS011;56190;43.562;5.036;2024-03-06T00:37:42;0.40;;;0.40;;
69087;SDS011;56190;43.562;5.036;2024-03-06T00:40:07;0.50;;;0.47;;
69087;SDS011;56190;43.562;5.036;2024-03-06T00:42:33;0.57;;;0.43;;
69087;SDS011;56190;43.562;5.036;2024-03-06T00:44:58;1.02;;;0.50;;
69087;SDS011;56190;43.562;5.036;2024-03-06T00:47:23;0.77;;;0.50;;
69087;SDS011;56190;43.562;5.036;2024-03-06T00:49:49;0.63;;;0.50;;
69087;SDS011;56190;43.562;5.036;2024-03-06T00:52:14;1.33;;;0.60;;
69087;SDS011;56190;43.562;5.036;2024-03-06T00:54:39;0.98;;;0.73;;
69087;SDS011;56190;43.562;5.036;2024-03-06T00:57:04;1.25;;;1.13;;
69087;SDS011;56190;43.562;5.036;2024-03-06T00:59:30;1.00;;;0.60;;
69087;SDS011;56190;43.562;5.036;2024-03-06T01:01:55;0.80;;;0.55;;
69087;SDS011;56190;43.562;5.036;2024-03-06T01:04:23;0.63;;;0.60;;
69087;SDS011;56190;43.562;5.036;2024-03-06T01:06:48;1.35;;;0.50;;
69087;SDS011;56190;43.562;5.036;2024-03-06T01:09:14;1.42;;;0.63;;
69087;SDS011;56190;43.562;5.036;2024-03-06T01:11:39;0.80;;;0.40;;
69087;SDS011;56190;43.562;5.036;2024-03-06T01:14:04;2.67;;;0.63;;
69087;SDS011;56190;43.562;5.036;2024-03-06T01:16:30;0.47;;;0.43;;
69087;SDS011;56190;43.562;5.036;2024-03-06T01:18:55;0.63;;;0.40;;
69087;SDS011;56190;43.562;5.036;2024-03-06T01:21:20;1.15;;;0.60;;
69087;SDS011;56190;43.562;5.036;2024-03-06T01:23:46;0.95;;;0.55;;
69087;SDS011;56190;43.562;5.036;2024-03-06T01:26:11;1.35;;;0.68;;
69087;SDS011;56190;43.562;5.036;2024-03-06T01:28:36;0.82;;;0.50;;
69087;SDS011;56190;43.562;5.036;2024-03-06T01:31:02;2.10;;;0.60;;
69087;SDS011;56190;43.562;5.036;2024-03-06T01:33:27;1.67;;;0.50;;
69087;SDS011;56190;43.562;5.036;2024-03-06T01:35:52;1.30;;;0.80;;
69087;SDS011;56190;43.562;5.036;2024-03-06T01:38:17;1.88;;;0.70;;
69087;SDS011;56190;43.562;5.036;2024-03-06T01:40:43;1.55;;;0.57;;
69087;SDS011;56190;43.562;5.036;2024-03-06T01:43:19;2.00;;;0.95;;
69087;SDS011;56190;43.562;5.036;2024-03-06T01:45:45;1.20;;;0.73;;
69087;SDS011;56190;43.562;5.036;2024-03-06T01:48:12;1.65;;;0.60;;
69087;SDS011;56190;43.562;5.036;2024-03-06T01:50:37;1.45;;;0.60;;
69087;SDS011;56190;43.562;5.036;2024-03-06T01:53:02;2.42;;;0.82;;
69087;SDS011;56190;43.562;5.036;2024-03-06T01:55:27;1.42;;;0.65;;
69087;SDS011;56190;43.562;5.036;2024-03-06T01:57:53;1.60;;;0.68;;
69087;SDS011;56190;43.562;5.036;2024-03-06T02:00:19;1.35;;;0.60;;
69087;SDS011;56190;43.562;5.036;2024-03-06T02:02:46;2.13;;;0.80;;
69087;SDS011;56190;43.562;5.036;2024-03-06T02:05:11;3.05;;;0.77;;
69087;SDS011;56190;43.562;5.036;2024-03-06T02:07:38;1.05;;;0.60;;
69087;SDS011;56190;43.562;5.036;2024-03-06T02:10:04;1.65;;;0.60;;
69087;SDS011;56190;43.562;5.036;2024-03-06T02:12:31;3.88;;;0.85;;
69087;SDS011;56190;43.562;5.036;2024-03-06T02:14:58;2.40;;;0.80;;
69087;SDS011;56190;43.562;5.036;2024-03-06T02:17:23;2.65;;;0.70;;
69087;SDS011;56190;43.562;5.036;2024-03-06T02:19:50;1.83;;;0.68;;
69087;SDS011;56190;43.562;5.036;2024-03-06T02:22:16;0.98;;;0.60;;
69087;SDS011;56190;43.562;5.036;2024-03-06T02:24:44;1.63;;;0.80;;
69087;SDS011;56190;43.562;5.036;2024-03-06T02:27:09;1.20;;;0.65;;
69087;SDS011;56190;43.562;5.036;2024-03-06T02:29:35;0.80;;;0.50;;
69087;SDS011;56190;43.562;5.036;2024-03-06T02:32:00;0.98;;;0.50;;
69087;SDS011;56190;43.562;5.036;2024-03-06T02:34:28;1.48;;;0.70;;
69087;SDS011;56190;43.562;5.036;2024-03-06T02:36:55;1.48;;;0.70;;
69087;SDS011;56190;43.562;5.036;2024-03-06T02:39:20;2.92;;;0.82;;
69087;SDS011;56190;43.562;5.036;2024-03-06T02:41:46;2.72;;;0.80;;
69087;SDS011;56190;43.562;5.036;2024-03-06T02:44:11;1.33;;;0.55;;
69087;SDS011;56190;43.562;5.036;2024-03-06T02:46:36;1.02;;;0.68;;
69087;SDS011;56190;43.562;5.036;2024-03-06T02:49:02;1.63;;;0.90;;
69087;SDS011;56190;43.562;5.036;2024-03-06T02:51:27;2.90;;;0.82;;
69087;SDS011;56190;43.562;5.036;2024-03-06T02:53:52;2.47;;;0.70;;
69087;SDS011;56190;43.562;5.036;2024-03-06T02:56:18;1.45;;;0.90;;
69087;SDS011;56190;43.562;5.036;2024-03-06T02:58:44;2.53;;;0.75;;
69087;SDS011;56190;43.562;5.036;2024-03-06T03:01:09;1.15;;;0.70;;
69087;SDS011;56190;43.562;5.036;2024-03-06T03:03:35;1.88;;;0.65;;
69087;SDS011;56190;43.562;5.036;2024-03-06T03:06:01;1.55;;;0.60;;
69087;SDS011;56190;43.562;5.036;2024-03-06T03:08:26;1.70;;;0.60;;
69087;SDS011;56190;43.562;5.036;2024-03-06T03:10:51;1.27;;;0.98;;
69087;SDS011;56190;43.562;5.036;2024-03-06T03:13:17;3.85;;;1.00;;
69087;SDS011;56190;43.562;5.036;2024-03-06T03:15:42;1.52;;;0.73;;
69087;SDS011;56190;43.562;5.036;2024-03-06T03:18:07;2.65;;;0.80;;
69087;SDS011;56190;43.562;5.036;2024-03-06T03:20:33;2.38;;;0.80;;
69087;SDS011;56190;43.562;5.036;2024-03-06T03:22:58;1.23;;;0.90;;
69087;SDS011;56190;43.562;5.036;2024-03-06T03:25:24;1.35;;;0.60;;
69087;SDS011;56190;43.562;5.036;2024-03-06T03:27:50;0.88;;;0.55;;
69087;SDS011;56190;43.562;5.036;2024-03-06T03:30:15;1.45;;;0.57;;
69087;SDS011;56190;43.562;5.036;2024-03-06T03:32:41;2.35;;;0.50;;
69087;SDS011;56190;43.562;5.036;2024-03-06T03:35:06;2.30;;;0.77;;
69087;SDS011;56190;43.562;5.036;2024-03-06T03:37:32;1.35;;;0.65;;
69087;SDS011;56190;43.562;5.036;2024-03-06T03:39:57;1.40;;;0.60;;
69087;SDS011;56190;43.562;5.036;2024-03-06T03:42:23;1.00;;;0.47;;
69087;SDS011;56190;43.562;5.036;2024-03-06T03:44:48;2.75;;;0.80;;
69087;SDS011;56190;43.562;5.036;2024-03-06T03:47:13;1.60;;;0.82;;
69087;SDS011;56190;43.562;5.036;2024-03-06T03:49:38;2.05;;;0.60;;
69087;SDS011;56190;43.562;5.036;2024-03-06T03:52:04;0.80;;;0.60;;
69087;SDS011;56190;43.562;5.036;2024-03-06T03:54:29;1.85;;;0.60;;
69087;SDS011;56190;43.562;5.036;2024-03-06T03:56:54;1.15;;;0.70;;
69087;SDS011;56190;43.562;5.036;2024-03-06T03:59:19;1.45;;;0.75;;
69087;SDS011;56190;43.562;5.036;2024-03-06T04:01:45;1.40;;;0.70;;
69087;SDS011;56190;43.562;5.036;2024-03-06T04:04:11;1.83;;;0.70;;
69087;SDS011;56190;43.562;5.036;2024-03-06T04:06:37;1.83;;;0.80;;
69087;SDS011;56190;43.562;5.036;2024-03-06T04:09:02;1.13;;;0.50;;
69087;SDS011;56190;43.562;5.036;2024-03-06T04:11:29;1.00;;;0.60;;
69087;SDS011;56190;43.562;5.036;2024-03-06T04:13:54;2.60;;;0.70;;
69087;SDS011;56190;43.562;5.036;2024-03-06T04:16:20;1.50;;;0.60;;
69087;SDS011;56190;43.562;5.036;2024-03-06T04:18:45;0.68;;;0.50;;
69087;SDS011;56190;43.562;5.036;2024-03-06T04:21:11;1.58;;;0.75;;
69087;SDS011;56190;43.562;5.036;2024-03-06T04:23:36;0.82;;;0.60;;
69087;SDS011;56190;43.562;5.036;2024-03-06T04:26:02;1.35;;;0.60;;
69087;SDS011;56190;43.562;5.036;2024-03-06T04:28:28;0.90;;;0.50;;
69087;SDS011;56190;43.562;5.036;2024-03-06T04:30:53;1.15;;;0.50;;
69087;SDS011;56190;43.562;5.036;2024-03-06T04:33:19;0.60;;;0.50;;
69087;SDS011;56190;43.562;5.036;2024-03-06T04:35:45;1.30;;;0.55;;
69087;SDS011;56190;43.562;5.036;2024-03-06T04:38:10;2.05;;;0.70;;
69087;SDS011;56190;43.562;5.036;2024-03-06T04:40:35;1.98;;;0.70;;
69087;SDS011;56190;43.562;5.036;2024-03-06T04:43:01;1.95;;;0.93;;
69087;SDS011;56190;43.562;5.036;2024-03-06T04:45:26;2.72;;;0.98;;
69087;SDS011;56190;43.562;5.036;2024-03-06T04:47:51;1.77;;;1.10;;
69087;SDS011;56190;43.562;5.036;2024-03-06T04:50:17;1.50;;;0.70;;
69087;SDS011;56190;43.562;5.036;2024-03-06T04:52:42;2.72;;;0.85;;
69087;SDS011;56190;43.562;5.036;2024-03-06T04:55:08;1.70;;;0.60;;
69087;SDS011;56190;43.562;5.036;2024-03-06T04:57:36;1.42;;;0.65;;
69087;SDS011;56190;43.562;5.036;2024-03-06T05:00:01;1.42;;;0.60;;
69087;SDS011;56190;43.562;5.036;2024-03-06T05:02:30;1.55;;;0.77;;
69087;SDS011;56190;43.562;5.036;2024-03-06T05:04:56;1.83;;;0.55;;
69087;SDS011;56190;43.562;5.036;2024-03-06T05:07:21;2.03;;;0.88;;
69087;SDS011;56190;43.562;5.036;2024-03-06T05:09:46;1.10;;;0.70;;
69087;SDS011;56190;43.562;5.036;2024-03-06T05:12:11;2.10;;;0.80;;
69087;SDS011;56190;43.562;5.036;2024-03-06T05:14:37;1.17;;;0.75;;
69087;SDS011;56190;43.562;5.036;2024-03-06T05:17:02;1.95;;;0.90;;
69087;SDS011;56190;43.562;5.036;2024-03-06T05:19:28;1.60;;;0.82;;
69087;SDS011;56190;43.562;5.036;2024-03-06T05:21:57;2.03;;;0.77;;
69087;SDS011;56190;43.562;5.036;2024-03-06T05:24:23;2.40;;;0.80;;
69087;SDS011;56190;43.562;5.036;2024-03-06T05:26:48;1.80;;;0.90;;
69087;SDS011;56190;43.562;5.036;2024-03-06T05:29:14;1.40;;;0.77;;
69087;SDS011;56190;43.562;5.036;2024-03-06T05:31:39;0.98;;;0.60;;
69087;SDS011;56190;43.562;5.036;2024-03-06T05:34:04;1.42;;;0.70;;
69087;SDS011;56190;43.562;5.036;2024-03-06T05:36:30;1.65;;;0.77;;
69087;SDS011;56190;43.562;5.036;2024-03-06T05:38:55;2.00;;;0.80;;
69087;SDS011;56190;43.562;5.036;2024-03-06T05:41:20;1.38;;;0.73;;
69087;SDS011;56190;43.562;5.036;2024-03-06T05:43:46;1.92;;;0.90;;
69087;SDS011;56190;43.562;5.036;2024-03-06T05:46:11;1.15;;;0.80;;
69087;SDS011;56190;43.562;5.036;2024-03-06T05:48:36;1.20;;;0.80;;
69087;SDS011;56190;43.562;5.036;2024-03-06T05:51:02;1.35;;;0.80;;
69087;SDS011;56190;43.562;5.036;2024-03-06T05:53:27;1.67;;;0.63;;
69087;SDS011;56190;43.562;5.036;2024-03-06T05:55:52;1.75;;;0.80;;
69087;SDS011;56190;43.562;5.036;2024-03-06T05:58:18;2.05;;;1.13;;
69087;SDS011;56190;43.562;5.036;2024-03-06T06:00:43;1.17;;;0.80;;
69087;SDS011;56190;43.562;5.036;2024-03-06T06:03:08;1.48;;;0.80;;
69087;SDS011;56190;43.562;5.036;2024-03-06T06:05:36;1.90;;;0.80;;
69087;SDS011;56190;43.562;5.036;2024-03-06T06:08:04;2.67;;;1.25;;
69087;SDS011;56190;43.562;5.036;2024-03-06T06:10:30;3.15;;;1.05;;
69087;SDS011;56190;43.562;5.036;2024-03-06T06:12:55;1.40;;;0.80;;
69087;SDS011;56190;43.562;5.036;2024-03-06T06:15:20;2.38;;;1.63;;
69087;SDS011;56190;43.562;5.036;2024-03-06T06:17:45;5.47;;;4.97;;
69087;SDS011;56190;43.562;5.036;2024-03-06T06:20:11;4.00;;;3.60;;
69087;SDS011;56190;43.562;5.036;2024-03-06T06:22:39;3.05;;;2.22;;
69087;SDS011;56190;43.562;5.036;2024-03-06T06:25:05;3.28;;;2.60;;
69087;SDS011;56190;43.562;5.036;2024-03-06T06:27:32;1.95;;;1.65;;
69087;SDS011;56190;43.562;5.036;2024-03-06T06:29:57;2.45;;;1.13;;
69087;SDS011;56190;43.562;5.036;2024-03-06T06:32:23;2.75;;;0.98;;
69087;SDS011;56190;43.562;5.036;2024-03-06T06:34:48;1.42;;;0.80;;
69087;SDS011;56190;43.562;5.036;2024-03-06T06:37:14;1.08;;;0.57;;
69087;SDS011;56190;43.562;5.036;2024-03-06T06:39:40;2.50;;;0.75;;
69087;SDS011;56190;43.562;5.036;2024-03-06T06:42:05;2.50;;;0.77;;
69087;SDS011;56190;43.562;5.036;2024-03-06T06:44:30;1.15;;;0.73;;
69087;SDS011;56190;43.562;5.036;2024-03-06T06:46:55;1.73;;;0.82;;
69087;SDS011;56190;43.562;5.036;2024-03-06T06:49:21;3.55;;;0.60;;
69087;SDS011;56190;43.562;5.036;2024-03-06T06:51:46;2.38;;;0.90;;
69087;SDS011;56190;43.562;5.036;2024-03-06T06:54:11;1.00;;;0.40;;
69087;SDS011;56190;43.562;5.036;2024-03-06T06:56:37;1.50;;;0.55;;
69087;SDS011;56190;43.562;5.036;2024-03-06T06:59:03;1.92;;;0.70;;
69087;SDS011;56190;43.562;5.036;2024-03-06T07:01:29;2.40;;;0.70;;
69087;SDS011;56190;43.562;5.036;2024-03-06T07:03:54;1.40;;;0.65;;
69087;SDS011;56190;43.562;5.036;2024-03-06T07:06:19;0.95;;;0.60;;
69087;SDS011;56190;43.562;5.036;2024-03-06T07:08:44;1.67;;;0.70;;
69087;SDS011;56190;43.562;5.036;2024-03-06T07:11:09;1.88;;;0.52;;
69087;SDS011;56190;43.562;5.036;2024-03-06T07:13:36;1.50;;;0.55;;
69087;SDS011;56190;43.562;5.036;2024-03-06T07:16:02;1.40;;;0.60;;
69087;SDS011;56190;43.562;5.036;2024-03-06T07:18:27;2.80;;;1.10;;
69087;SDS011;56190;43.562;5.036;2024-03-06T07:20:53;1.95;;;0.85;;
69087;SDS011;56190;43.562;5.036;2024-03-06T07:23:18;2.28;;;0.93;;
69087;SDS011;56190;43.562;5.036;2024-03-06T07:25:43;2.85;;;0.90;;
69087;SDS011;56190;43.562;5.036;2024-03-06T07:28:08;1.75;;;0.77;;
69087;SDS011;56190;43.562;5.036;2024-03-06T07:30:34;1.50;;;0.80;;
69087;SDS011;56190;43.562;5.036;2024-03-06T07:32:59;1.92;;;0.90;;
69087;SDS011;56190;43.562;5.036;2024-03-06T07:35:25;1.85;;;0.98;;
69087;SDS011;56190;43.562;5.036;2024-03-06T07:37:51;2.20;;;0.90;;
69087;SDS011;56190;43.562;5.036;2024-03-06T07:40:16;2.15;;;0.90;;
69087;SDS011;56190;43.562;5.036;2024-03-06T07:42:41;2.95;;;1.17;;
69087;SDS011;56190;43.562;5.036;2024-03-06T07:45:07;2.47;;;1.00;;
69087;SDS011;56190;43.562;5.036;2024-03-06T07:47:33;1.98;;;0.90;;
69087;SDS011;56190;43.562;5.036;2024-03-06T07:49:59;1.50;;;0.65;;
69087;SDS011;56190;43.562;5.036;2024-03-06T07:52:24;2.08;;;0.90;;
69087;SDS011;56190;43.562;5.036;2024-03-06T07:54:49;1.42;;;0.70;;
69087;SDS011;56190;43.562;5.036;2024-03-06T07:57:14;1.95;;;0.80;;
69087;SDS011;56190;43.562;5.036;2024-03-06T07:59:40;2.63;;;0.90;;
69087;SDS011;56190;43.562;5.036;2024-03-06T08:02:05;1.55;;;0.73;;
69087;SDS011;56190;43.562;5.036;2024-03-06T08:04:31;4.35;;;1.15;;
69087;SDS011;56190;43.562;5.036;2024-03-06T08:06:56;1.98;;;1.08;;
69087;SDS011;56190;43.562;5.036;2024-03-06T08:09:22;2.95;;;1.08;;
69087;SDS011;56190;43.562;5.036;2024-03-06T08:11:48;3.00;;;1.00;;
69087;SDS011;56190;43.562;5.036;2024-03-06T08:14:14;3.67;;;1.17;;
69087;SDS011;56190;43.562;5.036;2024-03-06T08:16:40;5.05;;;1.20;;
69087;SDS011;56190;43.562;5.036;2024-03-06T08:19:05;3.08;;;1.70;;
69087;SDS011;56190;43.562;5.036;2024-03-06T08:21:30;2.88;;;1.15;;
69087;SDS011;56190;43.562;5.036;2024-03-06T08:23:56;4.75;;;1.77;;
69087;SDS011;56190;43.562;5.036;2024-03-06T08:26:21;2.10;;;1.17;;
69087;SDS011;56190;43.562;5.036;2024-03-06T08:28:47;2.47;;;1.05;;
69087;SDS011;56190;43.562;5.036;2024-03-06T08:31:14;3.50;;;1.13;;
69087;SDS011;56190;43.562;5.036;2024-03-06T08:33:39;4.55;;;1.35;;
69087;SDS011;56190;43.562;5.036;2024-03-06T08:36:04;1.00;;;0.55;;
69087;SDS011;56190;43.562;5.036;2024-03-06T08:38:29;3.28;;;0.70;;
69087;SDS011;56190;43.562;5.036;2024-03-06T08:40:55;3.53;;;0.80;;
69087;SDS011;56190;43.562;5.036;2024-03-06T08:43:20;4.00;;;0.88;;
69087;SDS011;56190;43.562;5.036;2024-03-06T08:45:45;2.00;;;0.70;;
69087;SDS011;56190;43.562;5.036;2024-03-06T08:48:10;2.88;;;0.82;;
69087;SDS011;56190;43.562;5.036;2024-03-06T08:50:36;2.55;;;0.93;;
69087;SDS011;56190;43.562;5.036;2024-03-06T08:53:02;1.88;;;0.73;;
69087;SDS011;56190;43.562;5.036;2024-03-06T08:55:27;2.97;;;0.80;;
69087;SDS011;56190;43.562;5.036;2024-03-06T08:57:53;1.52;;;0.77;;
69087;SDS011;56190;43.562;5.036;2024-03-06T09:00:18;0.73;;;0.65;;
69087;SDS011;56190;43.562;5.036;2024-03-06T09:02:44;4.70;;;0.80;;
69087;SDS011;56190;43.562;5.036;2024-03-06T09:05:09;4.40;;;0.70;;
69087;SDS011;56190;43.562;5.036;2024-03-06T09:07:38;2.40;;;0.60;;
69087;SDS011;56190;43.562;5.036;2024-03-06T09:10:08;1.92;;;0.60;;
69087;SDS011;56190;43.562;5.036;2024-03-06T09:12:34;0.80;;;0.60;;
69087;SDS011;56190;43.562;5.036;2024-03-06T09:15:00;2.60;;;0.82;;
69087;SDS011;56190;43.562;5.036;2024-03-06T09:17:26;1.48;;;0.98;;
69087;SDS011;56190;43.562;5.036;2024-03-06T09:19:51;2.38;;;0.90;;
69087;SDS011;56190;43.562;5.036;2024-03-06T09:22:17;2.35;;;1.00;;
69087;SDS011;56190;43.562;5.036;2024-03-06T09:24:42;2.50;;;0.90;;
69087;SDS011;56190;43.562;5.036;2024-03-06T09:27:08;4.05;;;1.10;;
69087;SDS011;56190;43.562;5.036;2024-03-06T09:29:33;2.25;;;0.90;;
69087;SDS011;56190;43.562;5.036;2024-03-06T09:31:58;2.88;;;0.75;;
69087;SDS011;56190;43.562;5.036;2024-03-06T09:34:24;2.92;;;0.95;;
69087;SDS011;56190;43.562;5.036;2024-03-06T09:36:49;1.50;;;0.95;;
69087;SDS011;56190;43.562;5.036;2024-03-06T09:39:15;3.10;;;0.70;;
69087;SDS011;56190;43.562;5.036;2024-03-06T09:41:50;2.28;;;0.80;;
69087;SDS011;56190;43.562;5.036;2024-03-06T09:44:16;1.67;;;0.60;;
69087;SDS011;56190;43.562;5.036;2024-03-06T09:46:44;1.58;;;0.77;;
69087;SDS011;56190;43.562;5.036;2024-03-06T09:49:10;2.63;;;0.73;;
69087;SDS011;56190;43.562;5.036;2024-03-06T09:51:36;1.70;;;0.68;;
69087;SDS011;56190;43.562;5.036;2024-03-06T09:54:04;1.75;;;0.90;;
69087;SDS011;56190;43.562;5.036;2024-03-06T09:56:30;2.67;;;0.68;;
69087;SDS011;56190;43.562;5.036;2024-03-06T09:58:55;1.75;;;0.60;;
69087;SDS011;56190;43.562;5.036;2024-03-06T10:01:21;3.80;;;0.70;;
69087;SDS011;56190;43.562;5.036;2024-03-06T10:03:47;1.73;;;0.80;;
69087;SDS011;56190;43.562;5.036;2024-03-06T10:06:12;1.83;;;0.70;;
69087;SDS011;56190;43.562;5.036;2024-03-06T10:08:41;1.73;;;0.50;;
69087;SDS011;56190;43.562;5.036;2024-03-06T10:11:06;1.23;;;0.50;;
69087;SDS011;56190;43.562;5.036;2024-03-06T10:13:32;2.15;;;0.70;;
69087;SDS011;56190;43.562;5.036;2024-03-06T10:15:58;1.88;;;0.70;;
69087;SDS011;56190;43.562;5.036;2024-03-06T10:18:26;1.27;;;0.52;;
69087;SDS011;56190;43.562;5.036;2024-03-06T10:20:52;1.67;;;0.63;;
69087;SDS011;56190;43.562;5.036;2024-03-06T10:23:18;2.58;;;0.82;;
69087;SDS011;56190;43.562;5.036;2024-03-06T10:25:43;2.70;;;0.90;;
69087;SDS011;56190;43.562;5.036;2024-03-06T10:28:10;2.80;;;1.10;;
69087;SDS011;56190;43.562;5.036;2024-03-06T10:30:36;3.60;;;1.05;;
69087;SDS011;56190;43.562;5.036;2024-03-06T10:33:05;1.38;;;0.70;;
69087;SDS011;56190;43.562;5.036;2024-03-06T10:35:31;1.60;;;0.57;;
69087;SDS011;56190;43.562;5.036;2024-03-06T10:37:57;1.00;;;0.47;;
69087;SDS011;56190;43.562;5.036;2024-03-06T10:40:24;1.00;;;0.47;;
69087;SDS011;56190;43.562;5.036;2024-03-06T10:42:50;1.08;;;0.60;;
69087;SDS011;56190;43.562;5.036;2024-03-06T10:45:16;1.05;;;0.50;;
69087;SDS011;56190;43.562;5.036;2024-03-06T10:47:44;1.20;;;0.60;;
69087;SDS011;56190;43.562;5.036;2024-03-06T10:50:10;2.60;;;0.93;;
69087;SDS011;56190;43.562;5.036;2024-03-06T10:52:36;1.98;;;0.60;;
69087;SDS011;56190;43.562;5.036;2024-03-06T10:55:03;1.63;;;0.50;;
69087;SDS011;56190;43.562;5.036;2024-03-06T10:57:29;1.33;;;0.60;;
69087;SDS011;56190;43.562;5.036;2024-03-06T10:59:54;2.00;;;0.47;;
69087;SDS011;56190;43.562;5.036;2024-03-06T11:02:21;1.85;;;0.57;;
69087;SDS011;56190;43.562;5.036;2024-03-06T11:04:47;1.63;;;0.63;;
69087;SDS011;56190;43.562;5.036;2024-03-06T11:07:12;2.00;;;0.60;;
69087;SDS011;56190;43.562;5.036;2024-03-06T11:09:38;1.58;;;0.50;;
69087;SDS011;56190;43.562;5.036;2024-03-06T11:12:04;3.22;;;0.60;;
69087;SDS011;56190;43.562;5.036;2024-03-06T11:14:31;2.13;;;0.60;;
69087;SDS011;56190;43.562;5.036;2024-03-06T11:17:04;2.00;;;0.60;;
69087;SDS011;56190;43.562;5.036;2024-03-06T11:19:31;2.22;;;0.50;;
69087;SDS011;56190;43.562;5.036;2024-03-06T11:21:57;1.73;;;0.70;;
69087;SDS011;56190;43.562;5.036;2024-03-06T11:24:23;1.00;;;0.40;;
69087;SDS011;56190;43.562;5.036;2024-03-06T11:26:55;3.10;;;0.70;;
69087;SDS011;56190;43.562;5.036;2024-03-06T11:29:22;1.63;;;0.50;;
69087;SDS011;56190;43.562;5.036;2024-03-06T11:32:00;2.20;;;0.52;;
69087;SDS011;56190;43.562;5.036;2024-03-06T11:34:27;2.38;;;0.50;;
69087;SDS011;56190;43.562;5.036;2024-03-06T11:36:59;1.40;;;0.35;;
69087;SDS011;56190;43.562;5.036;2024-03-06T11:39:27;1.75;;;0.50;;
69087;SDS011;56190;43.562;5.036;2024-03-06T11:41:54;1.77;;;0.50;;
69087;SDS011;56190;43.562;5.036;2024-03-06T11:44:19;3.15;;;0.47;;
69087;SDS011;56190;43.562;5.036;2024-03-06T11:49:20;1.02;;;0.30;;
69087;SDS011;56190;43.562;5.036;2024-03-06T11:51:46;1.10;;;0.40;;
69087;SDS011;56190;43.562;5.036;2024-03-06T11:54:12;2.83;;;0.68;;
69087;SDS011;56190;43.562;5.036;2024-03-06T11:56:41;0.57;;;0.38;;
69087;SDS011;56190;43.562;5.036;2024-03-06T11:59:06;1.70;;;0.60;;
69087;SDS011;56190;43.562;5.036;2024-03-06T12:01:32;1.20;;;0.32;;
69087;SDS011;56190;43.562;5.036;2024-03-06T12:03:57;1.17;;;0.35;;
69087;SDS011;56190;43.562;5.036;2024-03-06T12:06:23;1.60;;;0.43;;
69087;SDS011;56190;43.562;5.036;2024-03-06T12:08:48;1.98;;;0.47;;
69087;SDS011;56190;43.562;5.036;2024-03-06T12:11:13;1.40;;;0.77;;
69087;SDS011;56190;43.562;5.036;2024-03-06T12:13:41;1.85;;;0.60;;
69087;SDS011;56190;43.562;5.036;2024-03-06T12:16:06;1.00;;;0.40;;
69087;SDS011;56190;43.562;5.036;2024-03-06T12:18:32;1.10;;;0.40;;
69087;SDS011;56190;43.562;5.036;2024-03-06T12:21:00;2.17;;;0.60;;
69087;SDS011;56190;43.562;5.036;2024-03-06T12:23:25;0.93;;;0.30;;
69087;SDS011;56190;43.562;5.036;2024-03-06T12:26:03;2.22;;;0.50;;
69087;SDS011;56190;43.562;5.036;2024-03-06T12:28:29;0.75;;;0.35;;
69087;SDS011;56190;43.562;5.036;2024-03-06T12:30:55;2.70;;;0.82;;
69087;SDS011;56190;43.562;5.036;2024-03-06T12:33:20;1.13;;;0.32;;
69087;SDS011;56190;43.562;5.036;2024-03-06T12:35:45;2.78;;;0.50;;
69087;SDS011;56190;43.562;5.036;2024-03-06T12:38:14;1.23;;;0.50;;
69087;SDS011;56190;43.562;5.036;2024-03-06T12:40:40;1.88;;;0.70;;
69087;SDS011;56190;43.562;5.036;2024-03-06T12:43:05;1.95;;;0.65;;
69087;SDS011;56190;43.562;5.036;2024-03-06T12:45:31;1.75;;;0.50;;
69087;SDS011;56190;43.562;5.036;2024-03-06T12:47:56;1.83;;;0.52;;
69087;SDS011;56190;43.562;5.036;2024-03-06T12:50:21;1.88;;;0.70;;
69087;SDS011;56190;43.562;5.036;2024-03-06T12:52:47;2.05;;;0.50;;
69087;SDS011;56190;43.562;5.036;2024-03-06T12:55:12;1.05;;;0.50;;
69087;SDS011;56190;43.562;5.036;2024-03-06T12:57:38;2.60;;;0.70;;
69087;SDS011;56190;43.562;5.036;2024-03-06T13:00:04;2.85;;;0.70;;
69087;SDS011;56190;43.562;5.036;2024-03-06T13:02:32;2.28;;;0.68;;
69087;SDS011;56190;43.562;5.036;2024-03-06T13:04:57;0.93;;;0.40;;
69087;SDS011;56190;43.562;5.036;2024-03-06T13:07:22;1.25;;;0.40;;
69087;SDS011;56190;43.562;5.036;2024-03-06T13:09:47;2.72;;;0.90;;
69087;SDS011;56190;43.562;5.036;2024-03-06T13:12:13;2.05;;;0.60;;
69087;SDS011;56190;43.562;5.036;2024-03-06T13:14:38;0.57;;;0.50;;
69087;SDS011;56190;43.562;5.036;2024-03-06T13:17:03;1.33;;;0.52;;
69087;SDS011;56190;43.562;5.036;2024-03-06T13:19:28;1.20;;;0.40;;
69087;SDS011;56190;43.562;5.036;2024-03-06T13:21:54;1.00;;;0.68;;
69087;SDS011;56190;43.562;5.036;2024-03-06T13:24:19;1.77;;;0.65;;
69087;SDS011;56190;43.562;5.036;2024-03-06T13:26:45;1.67;;;0.70;;
69087;SDS011;56190;43.562;5.036;2024-03-06T13:29:10;1.90;;;0.40;;
69087;SDS011;56190;43.562;5.036;2024-03-06T13:31:35;2.13;;;0.30;;
69087;SDS011;56190;43.562;5.036;2024-03-06T13:34:01;1.35;;;0.47;;
69087;SDS011;56190;43.562;5.036;2024-03-06T13:36:28;1.67;;;0.40;;
69087;SDS011;56190;43.562;5.036;2024-03-06T13:38:53;0.90;;;0.40;;
69087;SDS011;56190;43.562;5.036;2024-03-06T13:41:18;1.65;;;0.70;;
69087;SDS011;56190;43.562;5.036;2024-03-06T13:43:44;1.52;;;0.50;;
69087;SDS011;56190;43.562;5.036;2024-03-06T13:46:09;1.52;;;0.40;;
69087;SDS011;56190;43.562;5.036;2024-03-06T13:48:34;1.15;;;0.50;;
69087;SDS011;56190;43.562;5.036;2024-03-06T13:51:01;1.05;;;0.75;;
69087;SDS011;56190;43.562;5.036;2024-03-06T13:53:26;1.58;;;0.60;;
69087;SDS011;56190;43.562;5.036;2024-03-06T13:55:51;3.38;;;0.70;;
69087;SDS011;56190;43.562;5.036;2024-03-06T13:58:17;1.35;;;0.50;;
69087;SDS011;56190;43.562;5.036;2024-03-06T14:00:42;6.07;;;0.95;;
69087;SDS011;56190;43.562;5.036;2024-03-06T14:03:09;1.30;;;0.60;;
69087;SDS011;56190;43.562;5.036;2024-03-06T14:05:34;1.10;;;0.40;;
69087;SDS011;56190;43.562;5.036;2024-03-06T14:07:59;1.75;;;0.63;;
69087;SDS011;56190;43.562;5.036;2024-03-06T14:10:24;1.52;;;0.40;;
69087;SDS011;56190;43.562;5.036;2024-03-06T14:12:51;1.20;;;0.40;;
69087;SDS011;56190;43.562;5.036;2024-03-06T14:15:20;2.05;;;0.70;;
69087;SDS011;56190;43.562;5.036;2024-03-06T14:17:47;1.95;;;0.50;;
69087;SDS011;56190;43.562;5.036;2024-03-06T14:20:12;2.22;;;0.57;;
69087;SDS011;56190;43.562;5.036;2024-03-06T14:22:38;3.13;;;2.33;;
69087;SDS011;56190;43.562;5.036;2024-03-06T14:25:03;1.63;;;0.60;;
69087;SDS011;56190;43.562;5.036;2024-03-06T14:27:29;3.10;;;0.70;;
69087;SDS011;56190;43.562;5.036;2024-03-06T14:29:54;1.60;;;0.47;;
69087;SDS011;56190;43.562;5.036;2024-03-06T14:32:20;1.77;;;0.52;;
69087;SDS011;56190;43.562;5.036;2024-03-06T14:34:45;1.98;;;0.73;;
69087;SDS011;56190;43.562;5.036;2024-03-06T14:37:10;1.55;;;0.55;;
69087;SDS011;56190;43.562;5.036;2024-03-06T14:39:36;1.65;;;0.50;;
69087;SDS011;56190;43.562;5.036;2024-03-06T14:42:01;1.00;;;0.47;;